sensor_id;sensor_type;location;lat;lon;timestamp;P1;durP1;ratioP1;P2;durP2;ratioP2
11000;SDS011;5553;48.506;8.870;2023-02-15T00:02:02;21.33;;;13.07;;
11000;SDS011;5553;48.506;8.870;2023-02-15T00:04:30;26.13;;;13.50;;
11000;SDS011;5553;48.506;8.870;2023-02-15T00:07:14;20.53;;;13.37;;
11000;SDS011;5553;48.506;8.870;2023-02-15T00:09:44;25.63;;;13.80;;
11000;SDS011;5553;48.506;8.870;2023-02-15T00:12:13;19.70;;;12.83;;
11000;SDS011;5553;48.506;8.870;2023-02-15T00:14:42;23.27;;;13.33;;
11000;SDS011;5553;48.506;8.870;2023-02-15T00:17:13;21.77;;;12.60;;
11000;SDS011;5553;48.506;8.870;2023-02-15T00:19:42;22.37;;;13.40;;
11000;SDS011;5553;48.506;8.870;2023-02-15T00:22:10;22.53;;;12.73;;
11000;SDS011;5553;48.506;8.870;2023-02-15T00:24:38;23.80;;;12.43;;
11000;SDS011;5553;48.506;8.870;2023-02-15T00:27:06;19.77;;;12.40;;
11000;SDS011;5553;48.506;8.870;2023-02-15T00:29:35;18.60;;;12.37;;
11000;SDS011;5553;48.506;8.870;2023-02-15T00:32:03;25.60;;;12.70;;
11000;SDS011;5553;48.506;8.870;2023-02-15T00:34:34;19.37;;;12.07;;
11000;SDS011;5553;48.506;8.870;2023-02-15T00:37:02;20.30;;;12.17;;
11000;SDS011;5553;48.506;8.870;2023-02-15T00:39:30;20.23;;;12.70;;
11000;SDS011;5553;48.506;8.870;2023-02-15T00:41:59;29.37;;;14.97;;
11000;SDS011;5553;48.506;8.870;2023-02-15T00:44:27;19.63;;;12.00;;
11000;SDS011;5553;48.506;8.870;2023-02-15T00:46:55;18.70;;;11.83;;
11000;SDS011;5553;48.506;8.870;2023-02-15T00:49:23;24.93;;;12.97;;
11000;SDS011;5553;48.506;8.870;2023-02-15T00:51:54;22.77;;;12.87;;
11000;SDS011;5553;48.506;8.870;2023-02-15T00:54:23;19.63;;;12.90;;
11000;SDS011;5553;48.506;8.870;2023-02-15T00:56:51;25.23;;;12.60;;
11000;SDS011;5553;48.506;8.870;2023-02-15T00:59:19;19.37;;;11.43;;
11000;SDS011;5553;48.506;8.870;2023-02-15T01:01:47;21.83;;;11.80;;
11000;SDS011;5553;48.506;8.870;2023-02-15T01:04:15;19.33;;;11.70;;
11000;SDS011;5553;48.506;8.870;2023-02-15T01:06:44;21.30;;;12.63;;
11000;SDS011;5553;48.506;8.870;2023-02-15T01:09:15;22.63;;;12.63;;
11000;SDS011;5553;48.506;8.870;2023-02-15T01:11:43;18.87;;;11.43;;
11000;SDS011;5553;48.506;8.870;2023-02-15T01:14:11;25.57;;;12.17;;
11000;SDS011;5553;48.506;8.870;2023-02-15T01:16:40;22.63;;;12.27;;
11000;SDS011;5553;48.506;8.870;2023-02-15T01:19:08;22.27;;;13.57;;
11000;SDS011;5553;48.506;8.870;2023-02-15T01:21:36;22.43;;;12.37;;
11000;SDS011;5553;48.506;8.870;2023-02-15T01:24:10;26.50;;;13.97;;
11000;SDS011;5553;48.506;8.870;2023-02-15T01:26:42;25.53;;;13.13;;
11000;SDS011;5553;48.506;8.870;2023-02-15T01:29:10;23.70;;;12.93;;
11000;SDS011;5553;48.506;8.870;2023-02-15T01:31:38;24.40;;;13.67;;
11000;SDS011;5553;48.506;8.870;2023-02-15T01:34:06;21.67;;;12.97;;
11000;SDS011;5553;48.506;8.870;2023-02-15T01:36:35;20.30;;;12.60;;
11000;SDS011;5553;48.506;8.870;2023-02-15T01:39:03;21.03;;;12.03;;
11000;SDS011;5553;48.506;8.870;2023-02-15T01:41:32;21.93;;;12.00;;
11000;SDS011;5553;48.506;8.870;2023-02-15T01:44:44;19.07;;;11.97;;
11000;SDS011;5553;48.506;8.870;2023-02-15T01:47:09;20.13;;;12.73;;
11000;SDS011;5553;48.506;8.870;2023-02-15T01:49:40;22.30;;;12.70;;
11000;SDS011;5553;48.506;8.870;2023-02-15T01:52:13;20.63;;;11.90;;
11000;SDS011;5553;48.506;8.870;2023-02-15T01:54:44;19.60;;;12.27;;
11000;SDS011;5553;48.506;8.870;2023-02-15T01:57:15;23.07;;;13.07;;
11000;SDS011;5553;48.506;8.870;2023-02-15T01:59:46;18.13;;;11.43;;
11000;SDS011;5553;48.506;8.870;2023-02-15T02:02:22;18.43;;;11.20;;
11000;SDS011;5553;48.506;8.870;2023-02-15T02:04:52;19.23;;;11.97;;
11000;SDS011;5553;48.506;8.870;2023-02-15T02:07:26;16.77;;;11.33;;
11000;SDS011;5553;48.506;8.870;2023-02-15T02:09:56;16.33;;;10.47;;
11000;SDS011;5553;48.506;8.870;2023-02-15T02:12:25;19.23;;;10.20;;
11000;SDS011;5553;48.506;8.870;2023-02-15T02:14:54;23.70;;;12.13;;
11000;SDS011;5553;48.506;8.870;2023-02-15T02:17:29;17.53;;;11.70;;
11000;SDS011;5553;48.506;8.870;2023-02-15T02:20:15;21.60;;;11.33;;
11000;SDS011;5553;48.506;8.870;2023-02-15T02:23:01;21.30;;;10.00;;
11000;SDS011;5553;48.506;8.870;2023-02-15T02:25:49;16.17;;;11.57;;
11000;SDS011;5553;48.506;8.870;2023-02-15T02:28:53;21.50;;;11.17;;
11000;SDS011;5553;48.506;8.870;2023-02-15T02:31:42;25.80;;;12.17;;
11000;SDS011;5553;48.506;8.870;2023-02-15T02:34:18;19.03;;;11.00;;
11000;SDS011;5553;48.506;8.870;2023-02-15T02:36:55;20.47;;;12.03;;
11000;SDS011;5553;48.506;8.870;2023-02-15T02:39:29;20.10;;;11.17;;
11000;SDS011;5553;48.506;8.870;2023-02-15T02:42:05;20.23;;;11.17;;
11000;SDS011;5553;48.506;8.870;2023-02-15T02:44:40;19.83;;;11.90;;
11000;SDS011;5553;48.506;8.870;2023-02-15T02:47:11;20.37;;;11.57;;
11000;SDS011;5553;48.506;8.870;2023-02-15T02:49:47;18.90;;;11.30;;
11000;SDS011;5553;48.506;8.870;2023-02-15T02:55:04;19.67;;;12.20;;
11000;SDS011;5553;48.506;8.870;2023-02-15T02:57:39;18.13;;;11.83;;
11000;SDS011;5553;48.506;8.870;2023-02-15T03:00:13;16.97;;;12.37;;
11000;SDS011;5553;48.506;8.870;2023-02-15T03:02:42;18.70;;;11.27;;
11000;SDS011;5553;48.506;8.870;2023-02-15T03:05:18;19.87;;;11.67;;
11000;SDS011;5553;48.506;8.870;2023-02-15T03:07:50;22.30;;;12.90;;
11000;SDS011;5553;48.506;8.870;2023-02-15T03:10:22;21.30;;;11.53;;
11000;SDS011;5553;48.506;8.870;2023-02-15T03:12:52;26.80;;;12.93;;
11000;SDS011;5553;48.506;8.870;2023-02-15T03:15:22;20.93;;;11.47;;
11000;SDS011;5553;48.506;8.870;2023-02-15T03:18:13;23.00;;;11.83;;
11000;SDS011;5553;48.506;8.870;2023-02-15T03:20:44;19.17;;;11.47;;
11000;SDS011;5553;48.506;8.870;2023-02-15T03:23:13;23.93;;;11.50;;
11000;SDS011;5553;48.506;8.870;2023-02-15T03:25:46;17.10;;;10.00;;
11000;SDS011;5553;48.506;8.870;2023-02-15T03:28:20;19.23;;;10.60;;
11000;SDS011;5553;48.506;8.870;2023-02-15T03:30:55;18.67;;;11.10;;
11000;SDS011;5553;48.506;8.870;2023-02-15T03:33:26;19.60;;;11.87;;
11000;SDS011;5553;48.506;8.870;2023-02-15T03:36:01;16.10;;;10.27;;
11000;SDS011;5553;48.506;8.870;2023-02-15T03:38:33;16.67;;;10.73;;
11000;SDS011;5553;48.506;8.870;2023-02-15T03:41:09;19.93;;;10.27;;
11000;SDS011;5553;48.506;8.870;2023-02-15T03:43:42;23.70;;;12.00;;
11000;SDS011;5553;48.506;8.870;2023-02-15T03:46:17;20.37;;;11.80;;
11000;SDS011;5553;48.506;8.870;2023-02-15T03:48:53;17.77;;;11.13;;
11000;SDS011;5553;48.506;8.870;2023-02-15T03:51:28;21.73;;;11.50;;
11000;SDS011;5553;48.506;8.870;2023-02-15T03:54:04;24.70;;;11.30;;
11000;SDS011;5553;48.506;8.870;2023-02-15T03:56:36;22.53;;;12.90;;
11000;SDS011;5553;48.506;8.870;2023-02-15T03:59:05;21.80;;;12.87;;
11000;SDS011;5553;48.506;8.870;2023-02-15T04:01:48;24.67;;;12.40;;
11000;SDS011;5553;48.506;8.870;2023-02-15T04:04:31;24.70;;;11.93;;
11000;SDS011;5553;48.506;8.870;2023-02-15T04:07:04;21.43;;;11.77;;
11000;SDS011;5553;48.506;8.870;2023-02-15T04:09:35;20.37;;;12.07;;
11000;SDS011;5553;48.506;8.870;2023-02-15T04:12:16;17.03;;;10.13;;
11000;SDS011;5553;48.506;8.870;2023-02-15T04:14:44;18.30;;;11.80;;
11000;SDS011;5553;48.506;8.870;2023-02-15T04:17:25;22.50;;;12.10;;
11000;SDS011;5553;48.506;8.870;2023-02-15T04:19:53;17.63;;;11.47;;
11000;SDS011;5553;48.506;8.870;2023-02-15T04:22:37;16.93;;;10.37;;
11000;SDS011;5553;48.506;8.870;2023-02-15T04:25:18;18.00;;;10.73;;
11000;SDS011;5553;48.506;8.870;2023-02-15T04:27:47;23.37;;;11.60;;
11000;SDS011;5553;48.506;8.870;2023-02-15T04:30:18;18.90;;;11.77;;
11000;SDS011;5553;48.506;8.870;2023-02-15T04:32:48;19.80;;;11.47;;
11000;SDS011;5553;48.506;8.870;2023-02-15T04:35:17;22.90;;;12.50;;
11000;SDS011;5553;48.506;8.870;2023-02-15T04:37:48;21.03;;;12.07;;
11000;SDS011;5553;48.506;8.870;2023-02-15T04:40:16;21.10;;;11.90;;
11000;SDS011;5553;48.506;8.870;2023-02-15T04:42:46;23.60;;;12.20;;
11000;SDS011;5553;48.506;8.870;2023-02-15T04:45:15;18.00;;;10.07;;
11000;SDS011;5553;48.506;8.870;2023-02-15T04:47:44;19.70;;;11.50;;
11000;SDS011;5553;48.506;8.870;2023-02-15T04:50:12;20.90;;;11.83;;
11000;SDS011;5553;48.506;8.870;2023-02-15T04:52:40;20.33;;;10.43;;
11000;SDS011;5553;48.506;8.870;2023-02-15T04:55:11;19.20;;;10.83;;
11000;SDS011;5553;48.506;8.870;2023-02-15T04:57:39;22.03;;;11.40;;
11000;SDS011;5553;48.506;8.870;2023-02-15T05:00:08;22.70;;;11.47;;
11000;SDS011;5553;48.506;8.870;2023-02-15T05:02:37;17.10;;;10.30;;
11000;SDS011;5553;48.506;8.870;2023-02-15T05:05:05;23.70;;;11.70;;
11000;SDS011;5553;48.506;8.870;2023-02-15T05:07:37;19.53;;;12.00;;
11000;SDS011;5553;48.506;8.870;2023-02-15T05:10:06;18.87;;;11.97;;
11000;SDS011;5553;48.506;8.870;2023-02-15T05:12:38;19.20;;;12.00;;
11000;SDS011;5553;48.506;8.870;2023-02-15T05:15:06;18.83;;;12.27;;
11000;SDS011;5553;48.506;8.870;2023-02-15T05:17:36;20.60;;;12.10;;
11000;SDS011;5553;48.506;8.870;2023-02-15T05:20:05;23.63;;;13.10;;
11000;SDS011;5553;48.506;8.870;2023-02-15T05:22:34;19.17;;;10.70;;
11000;SDS011;5553;48.506;8.870;2023-02-15T05:25:02;21.30;;;12.23;;
11000;SDS011;5553;48.506;8.870;2023-02-15T05:27:45;22.23;;;12.17;;
11000;SDS011;5553;48.506;8.870;2023-02-15T05:30:26;24.00;;;12.30;;
11000;SDS011;5553;48.506;8.870;2023-02-15T05:32:54;22.43;;;11.67;;
11000;SDS011;5553;48.506;8.870;2023-02-15T05:35:22;21.27;;;12.07;;
11000;SDS011;5553;48.506;8.870;2023-02-15T05:37:51;23.40;;;12.63;;
11000;SDS011;5553;48.506;8.870;2023-02-15T05:40:19;24.03;;;12.07;;
11000;SDS011;5553;48.506;8.870;2023-02-15T05:42:50;24.57;;;13.00;;
11000;SDS011;5553;48.506;8.870;2023-02-15T05:45:18;27.50;;;13.77;;
11000;SDS011;5553;48.506;8.870;2023-02-15T05:47:46;20.27;;;11.67;;
11000;SDS011;5553;48.506;8.870;2023-02-15T05:50:15;25.93;;;13.40;;
11000;SDS011;5553;48.506;8.870;2023-02-15T05:52:43;20.47;;;11.60;;
11000;SDS011;5553;48.506;8.870;2023-02-15T05:55:12;19.83;;;11.33;;
11000;SDS011;5553;48.506;8.870;2023-02-15T05:57:40;25.90;;;12.43;;
11000;SDS011;5553;48.506;8.870;2023-02-15T06:00:11;22.70;;;12.00;;
11000;SDS011;5553;48.506;8.870;2023-02-15T06:02:41;18.40;;;11.07;;
11000;SDS011;5553;48.506;8.870;2023-02-15T06:05:09;21.40;;;11.60;;
11000;SDS011;5553;48.506;8.870;2023-02-15T06:07:38;27.97;;;14.43;;
11000;SDS011;5553;48.506;8.870;2023-02-15T06:10:06;18.33;;;10.57;;
11000;SDS011;5553;48.506;8.870;2023-02-15T06:12:35;22.40;;;11.20;;
11000;SDS011;5553;48.506;8.870;2023-02-15T06:15:03;20.13;;;11.27;;
11000;SDS011;5553;48.506;8.870;2023-02-15T06:17:35;22.70;;;11.33;;
11000;SDS011;5553;48.506;8.870;2023-02-15T06:20:03;20.37;;;12.47;;
11000;SDS011;5553;48.506;8.870;2023-02-15T06:22:33;25.50;;;11.20;;
11000;SDS011;5553;48.506;8.870;2023-02-15T06:25:01;25.10;;;11.80;;
11000;SDS011;5553;48.506;8.870;2023-02-15T06:27:29;18.60;;;11.37;;
11000;SDS011;5553;48.506;8.870;2023-02-15T06:29:58;21.33;;;10.57;;
11000;SDS011;5553;48.506;8.870;2023-02-15T06:32:26;19.97;;;10.53;;
11000;SDS011;5553;48.506;8.870;2023-02-15T06:34:57;18.57;;;9.93;;
11000;SDS011;5553;48.506;8.870;2023-02-15T06:37:25;22.23;;;11.23;;
11000;SDS011;5553;48.506;8.870;2023-02-15T06:39:53;21.47;;;10.93;;
11000;SDS011;5553;48.506;8.870;2023-02-15T06:42:22;17.93;;;10.97;;
11000;SDS011;5553;48.506;8.870;2023-02-15T06:44:50;17.63;;;9.80;;
11000;SDS011;5553;48.506;8.870;2023-02-15T06:47:18;19.97;;;10.67;;
11000;SDS011;5553;48.506;8.870;2023-02-15T06:49:46;21.03;;;10.13;;
11000;SDS011;5553;48.506;8.870;2023-02-15T06:52:17;21.83;;;11.77;;
11000;SDS011;5553;48.506;8.870;2023-02-15T06:54:45;20.03;;;10.03;;
11000;SDS011;5553;48.506;8.870;2023-02-15T06:57:14;20.63;;;11.70;;
11000;SDS011;5553;48.506;8.870;2023-02-15T06:59:42;17.93;;;10.13;;
11000;SDS011;5553;48.506;8.870;2023-02-15T07:02:10;19.47;;;9.83;;
11000;SDS011;5553;48.506;8.870;2023-02-15T07:04:39;18.40;;;10.67;;
11000;SDS011;5553;48.506;8.870;2023-02-15T07:07:07;13.50;;;9.07;;
11000;SDS011;5553;48.506;8.870;2023-02-15T07:09:39;18.00;;;8.97;;
11000;SDS011;5553;48.506;8.870;2023-02-15T07:12:08;21.70;;;11.73;;
11000;SDS011;5553;48.506;8.870;2023-02-15T07:14:49;21.67;;;12.00;;
11000;SDS011;5553;48.506;8.870;2023-02-15T07:17:18;61.93;;;31.63;;
11000;SDS011;5553;48.506;8.870;2023-02-15T07:19:46;31.20;;;17.43;;
11000;SDS011;5553;48.506;8.870;2023-02-15T07:22:14;26.33;;;14.50;;
11000;SDS011;5553;48.506;8.870;2023-02-15T07:24:45;30.10;;;16.30;;
11000;SDS011;5553;48.506;8.870;2023-02-15T07:27:14;28.10;;;16.00;;
11000;SDS011;5553;48.506;8.870;2023-02-15T07:29:42;27.53;;;14.43;;
11000;SDS011;5553;48.506;8.870;2023-02-15T07:32:10;27.83;;;14.97;;
11000;SDS011;5553;48.506;8.870;2023-02-15T07:34:39;27.60;;;15.10;;
11000;SDS011;5553;48.506;8.870;2023-02-15T07:37:08;32.57;;;15.17;;
11000;SDS011;5553;48.506;8.870;2023-02-15T07:39:36;27.17;;;13.73;;
11000;SDS011;5553;48.506;8.870;2023-02-15T07:42:07;41.43;;;23.73;;
11000;SDS011;5553;48.506;8.870;2023-02-15T07:44:35;29.97;;;16.97;;
11000;SDS011;5553;48.506;8.870;2023-02-15T07:47:03;25.87;;;13.70;;
11000;SDS011;5553;48.506;8.870;2023-02-15T07:49:31;18.83;;;11.33;;
11000;SDS011;5553;48.506;8.870;2023-02-15T07:52:00;16.83;;;11.20;;
11000;SDS011;5553;48.506;8.870;2023-02-15T07:54:28;22.00;;;12.30;;
11000;SDS011;5553;48.506;8.870;2023-02-15T07:56:56;17.60;;;11.13;;
11000;SDS011;5553;48.506;8.870;2023-02-15T07:59:27;22.70;;;13.13;;
11000;SDS011;5553;48.506;8.870;2023-02-15T08:01:56;22.13;;;12.40;;
11000;SDS011;5553;48.506;8.870;2023-02-15T08:04:24;21.63;;;12.17;;
11000;SDS011;5553;48.506;8.870;2023-02-15T08:06:52;19.27;;;12.33;;
11000;SDS011;5553;48.506;8.870;2023-02-15T08:09:21;27.53;;;16.20;;
11000;SDS011;5553;48.506;8.870;2023-02-15T08:11:50;35.33;;;21.33;;
11000;SDS011;5553;48.506;8.870;2023-02-15T08:14:18;30.93;;;17.93;;
11000;SDS011;5553;48.506;8.870;2023-02-15T08:16:52;43.00;;;23.80;;
11000;SDS011;5553;48.506;8.870;2023-02-15T08:19:22;28.83;;;18.60;;
11000;SDS011;5553;48.506;8.870;2023-02-15T08:21:53;32.23;;;17.37;;
11000;SDS011;5553;48.506;8.870;2023-02-15T08:24:27;27.40;;;16.50;;
11000;SDS011;5553;48.506;8.870;2023-02-15T08:26:56;23.43;;;15.80;;
11000;SDS011;5553;48.506;8.870;2023-02-15T08:29:28;20.87;;;14.20;;
11000;SDS011;5553;48.506;8.870;2023-02-15T08:32:00;31.17;;;18.60;;
11000;SDS011;5553;48.506;8.870;2023-02-15T08:34:32;23.90;;;14.60;;
11000;SDS011;5553;48.506;8.870;2023-02-15T08:37:01;22.80;;;15.50;;
11000;SDS011;5553;48.506;8.870;2023-02-15T08:39:31;29.53;;;16.83;;
11000;SDS011;5553;48.506;8.870;2023-02-15T08:41:59;26.40;;;16.27;;
11000;SDS011;5553;48.506;8.870;2023-02-15T08:44:27;29.47;;;17.90;;
11000;SDS011;5553;48.506;8.870;2023-02-15T08:46:56;23.13;;;15.60;;
11000;SDS011;5553;48.506;8.870;2023-02-15T08:49:31;22.00;;;13.87;;
11000;SDS011;5553;48.506;8.870;2023-02-15T08:51:59;23.57;;;13.33;;
11000;SDS011;5553;48.506;8.870;2023-02-15T08:54:27;21.30;;;14.10;;
11000;SDS011;5553;48.506;8.870;2023-02-15T08:56:55;21.57;;;14.40;;
11000;SDS011;5553;48.506;8.870;2023-02-15T08:59:24;20.40;;;13.03;;
11000;SDS011;5553;48.506;8.870;2023-02-15T09:01:53;22.63;;;12.97;;
11000;SDS011;5553;48.506;8.870;2023-02-15T09:04:22;23.77;;;14.33;;
11000;SDS011;5553;48.506;8.870;2023-02-15T09:06:52;21.13;;;12.27;;
11000;SDS011;5553;48.506;8.870;2023-02-15T09:09:21;25.13;;;13.63;;
11000;SDS011;5553;48.506;8.870;2023-02-15T09:11:50;22.37;;;13.87;;
11000;SDS011;5553;48.506;8.870;2023-02-15T09:14:20;22.37;;;13.90;;
11000;SDS011;5553;48.506;8.870;2023-02-15T09:16:51;23.93;;;12.73;;
11000;SDS011;5553;48.506;8.870;2023-02-15T09:19:20;18.90;;;13.00;;
11000;SDS011;5553;48.506;8.870;2023-02-15T09:21:53;19.73;;;12.93;;
11000;SDS011;5553;48.506;8.870;2023-02-15T09:24:23;20.53;;;12.30;;
11000;SDS011;5553;48.506;8.870;2023-02-15T09:26:51;24.87;;;13.50;;
11000;SDS011;5553;48.506;8.870;2023-02-15T09:29:19;19.53;;;13.10;;
11000;SDS011;5553;48.506;8.870;2023-02-15T09:31:48;20.90;;;12.30;;
11000;SDS011;5553;48.506;8.870;2023-02-15T09:34:19;19.27;;;11.20;;
11000;SDS011;5553;48.506;8.870;2023-02-15T09:36:49;22.17;;;12.27;;
11000;SDS011;5553;48.506;8.870;2023-02-15T09:39:21;17.17;;;11.47;;
11000;SDS011;5553;48.506;8.870;2023-02-15T09:44:51;23.13;;;13.67;;
11000;SDS011;5553;48.506;8.870;2023-02-15T09:47:37;21.00;;;13.70;;
11000;SDS011;5553;48.506;8.870;2023-02-15T09:50:34;20.60;;;12.60;;
11000;SDS011;5553;48.506;8.870;2023-02-15T09:53:19;18.30;;;12.43;;
11000;SDS011;5553;48.506;8.870;2023-02-15T09:56:00;18.20;;;12.93;;
11000;SDS011;5553;48.506;8.870;2023-02-15T09:58:37;21.57;;;13.20;;
11000;SDS011;5553;48.506;8.870;2023-02-15T10:01:16;17.00;;;12.50;;
11000;SDS011;5553;48.506;8.870;2023-02-15T10:04:05;19.23;;;12.13;;
11000;SDS011;5553;48.506;8.870;2023-02-15T10:06:51;19.93;;;12.90;;
11000;SDS011;5553;48.506;8.870;2023-02-15T10:09:32;17.53;;;12.40;;
11000;SDS011;5553;48.506;8.870;2023-02-15T10:15:15;21.13;;;11.90;;
11000;SDS011;5553;48.506;8.870;2023-02-15T10:17:55;22.73;;;13.23;;
11000;SDS011;5553;48.506;8.870;2023-02-15T10:20:48;19.47;;;12.23;;
11000;SDS011;5553;48.506;8.870;2023-02-15T10:23:38;18.33;;;12.70;;
11000;SDS011;5553;48.506;8.870;2023-02-15T10:26:17;23.23;;;15.70;;
11000;SDS011;5553;48.506;8.870;2023-02-15T10:28:50;20.70;;;13.77;;
11000;SDS011;5553;48.506;8.870;2023-02-15T10:31:25;17.50;;;12.13;;
11000;SDS011;5553;48.506;8.870;2023-02-15T10:33:59;23.93;;;14.60;;
11000;SDS011;5553;48.506;8.870;2023-02-15T10:36:44;21.67;;;13.13;;
11000;SDS011;5553;48.506;8.870;2023-02-15T10:39:36;18.07;;;12.43;;
11000;SDS011;5553;48.506;8.870;2023-02-15T10:42:16;18.97;;;13.80;;
11000;SDS011;5553;48.506;8.870;2023-02-15T10:44:58;18.27;;;12.47;;
11000;SDS011;5553;48.506;8.870;2023-02-15T10:47:44;16.97;;;12.53;;
11000;SDS011;5553;48.506;8.870;2023-02-15T10:50:27;18.90;;;13.07;;
11000;SDS011;5553;48.506;8.870;2023-02-15T10:53:07;17.63;;;12.17;;
11000;SDS011;5553;48.506;8.870;2023-02-15T10:55:47;25.83;;;13.27;;
11000;SDS011;5553;48.506;8.870;2023-02-15T10:58:26;24.20;;;13.27;;
11000;SDS011;5553;48.506;8.870;2023-02-15T11:01:09;21.03;;;12.73;;
11000;SDS011;5553;48.506;8.870;2023-02-15T11:06:39;16.57;;;12.80;;
11000;SDS011;5553;48.506;8.870;2023-02-15T11:09:13;18.43;;;12.90;;
11000;SDS011;5553;48.506;8.870;2023-02-15T11:11:46;13.10;;;10.90;;
11000;SDS011;5553;48.506;8.870;2023-02-15T11:14:20;18.43;;;13.27;;
11000;SDS011;5553;48.506;8.870;2023-02-15T11:16:59;17.93;;;13.50;;
11000;SDS011;5553;48.506;8.870;2023-02-15T11:19:33;22.50;;;14.30;;
11000;SDS011;5553;48.506;8.870;2023-02-15T11:22:04;20.23;;;12.53;;
11000;SDS011;5553;48.506;8.870;2023-02-15T11:24:35;19.03;;;13.20;;
11000;SDS011;5553;48.506;8.870;2023-02-15T11:27:15;20.07;;;12.77;;
11000;SDS011;5553;48.506;8.870;2023-02-15T11:29:50;16.10;;;12.77;;
11000;SDS011;5553;48.506;8.870;2023-02-15T11:32:26;16.87;;;13.67;;
11000;SDS011;5553;48.506;8.870;2023-02-15T11:34:59;19.60;;;12.20;;
11000;SDS011;5553;48.506;8.870;2023-02-15T11:37:33;16.10;;;12.40;;
11000;SDS011;5553;48.506;8.870;2023-02-15T11:40:12;16.77;;;12.60;;
11000;SDS011;5553;48.506;8.870;2023-02-15T11:42:47;17.57;;;13.73;;
11000;SDS011;5553;48.506;8.870;2023-02-15T11:45:19;21.00;;;13.13;;
11000;SDS011;5553;48.506;8.870;2023-02-15T11:47:56;17.10;;;12.97;;
11000;SDS011;5553;48.506;8.870;2023-02-15T11:53:13;22.37;;;12.80;;
11000;SDS011;5553;48.506;8.870;2023-02-15T11:55:44;14.10;;;11.80;;
11000;SDS011;5553;48.506;8.870;2023-02-15T11:58:16;14.27;;;12.63;;
11000;SDS011;5553;48.506;8.870;2023-02-15T12:06:44;15.23;;;11.97;;
11000;SDS011;5553;48.506;8.870;2023-02-15T12:09:17;18.50;;;10.90;;
11000;SDS011;5553;48.506;8.870;2023-02-15T12:17:51;14.30;;;12.80;;
11000;SDS011;5553;48.506;8.870;2023-02-15T12:20:21;12.37;;;11.07;;
11000;SDS011;5553;48.506;8.870;2023-02-15T12:23:00;15.10;;;11.50;;
11000;SDS011;5553;48.506;8.870;2023-02-15T12:25:33;13.17;;;10.83;;
11000;SDS011;5553;48.506;8.870;2023-02-15T12:28:05;17.43;;;13.00;;
11000;SDS011;5553;48.506;8.870;2023-02-15T12:30:50;15.53;;;13.43;;
11000;SDS011;5553;48.506;8.870;2023-02-15T12:33:22;17.33;;;13.80;;
11000;SDS011;5553;48.506;8.870;2023-02-15T12:35:56;18.77;;;13.40;;
11000;SDS011;5553;48.506;8.870;2023-02-15T12:38:29;14.33;;;12.83;;
11000;SDS011;5553;48.506;8.870;2023-02-15T12:41:00;13.20;;;11.70;;
11000;SDS011;5553;48.506;8.870;2023-02-15T12:43:31;13.17;;;11.63;;
11000;SDS011;5553;48.506;8.870;2023-02-15T12:46:14;15.30;;;12.53;;
11000;SDS011;5553;48.506;8.870;2023-02-15T12:51:42;12.07;;;10.83;;
11000;SDS011;5553;48.506;8.870;2023-02-15T12:54:30;14.27;;;11.10;;
11000;SDS011;5553;48.506;8.870;2023-02-15T12:57:12;16.23;;;12.60;;
11000;SDS011;5553;48.506;8.870;2023-02-15T12:59:49;16.83;;;12.00;;
11000;SDS011;5553;48.506;8.870;2023-02-15T13:02:20;13.70;;;12.27;;
11000;SDS011;5553;48.506;8.870;2023-02-15T13:04:52;14.77;;;11.67;;
11000;SDS011;5553;48.506;8.870;2023-02-15T13:07:21;14.33;;;10.70;;
11000;SDS011;5553;48.506;8.870;2023-02-15T13:09:54;13.60;;;11.93;;
11000;SDS011;5553;48.506;8.870;2023-02-15T13:12:22;13.80;;;12.33;;
11000;SDS011;5553;48.506;8.870;2023-02-15T13:14:54;14.40;;;11.87;;
11000;SDS011;5553;48.506;8.870;2023-02-15T13:17:24;16.53;;;12.80;;
11000;SDS011;5553;48.506;8.870;2023-02-15T13:19:56;13.43;;;10.93;;
11000;SDS011;5553;48.506;8.870;2023-02-15T13:22:32;14.23;;;11.40;;
11000;SDS011;5553;48.506;8.870;2023-02-15T13:25:12;13.13;;;10.60;;
11000;SDS011;5553;48.506;8.870;2023-02-15T13:27:45;14.37;;;11.00;;
11000;SDS011;5553;48.506;8.870;2023-02-15T13:30:18;17.93;;;11.10;;
11000;SDS011;5553;48.506;8.870;2023-02-15T13:32:54;13.37;;;9.87;;
11000;SDS011;5553;48.506;8.870;2023-02-15T13:35:27;12.20;;;9.70;;
11000;SDS011;5553;48.506;8.870;2023-02-15T13:41:06;10.73;;;9.37;;
11000;SDS011;5553;48.506;8.870;2023-02-15T13:43:42;8.10;;;7.20;;
11000;SDS011;5553;48.506;8.870;2023-02-15T13:46:23;12.07;;;9.20;;
11000;SDS011;5553;48.506;8.870;2023-02-15T13:49:10;10.80;;;8.73;;
11000;SDS011;5553;48.506;8.870;2023-02-15T13:51:49;8.70;;;7.43;;
11000;SDS011;5553;48.506;8.870;2023-02-15T13:54:33;8.50;;;7.20;;
11000;SDS011;5553;48.506;8.870;2023-02-15T13:57:20;6.83;;;6.13;;
11000;SDS011;5553;48.506;8.870;2023-02-15T14:00:02;8.90;;;5.90;;
11000;SDS011;5553;48.506;8.870;2023-02-15T14:02:46;8.33;;;7.30;;
11000;SDS011;5553;48.506;8.870;2023-02-15T14:05:34;8.53;;;6.23;;
11000;SDS011;5553;48.506;8.870;2023-02-15T14:08:11;9.20;;;7.57;;
11000;SDS011;5553;48.506;8.870;2023-02-15T14:10:49;12.00;;;8.47;;
11000;SDS011;5553;48.506;8.870;2023-02-15T14:16:23;9.77;;;7.87;;
11000;SDS011;5553;48.506;8.870;2023-02-15T14:19:03;9.43;;;8.50;;
11000;SDS011;5553;48.506;8.870;2023-02-15T14:21:41;8.03;;;5.63;;
11000;SDS011;5553;48.506;8.870;2023-02-15T14:24:17;8.30;;;7.27;;
11000;SDS011;5553;48.506;8.870;2023-02-15T14:26:57;8.10;;;6.73;;
11000;SDS011;5553;48.506;8.870;2023-02-15T14:29:40;9.10;;;6.17;;
11000;SDS011;5553;48.506;8.870;2023-02-15T14:32:14;4.83;;;4.33;;
11000;SDS011;5553;48.506;8.870;2023-02-15T14:34:48;5.47;;;4.97;;
11000;SDS011;5553;48.506;8.870;2023-02-15T14:37:21;5.97;;;5.03;;
11000;SDS011;5553;48.506;8.870;2023-02-15T14:40:00;9.63;;;5.53;;
11000;SDS011;5553;48.506;8.870;2023-02-15T14:42:48;10.47;;;7.43;;
11000;SDS011;5553;48.506;8.870;2023-02-15T14:45:28;9.80;;;5.83;;
11000;SDS011;5553;48.506;8.870;2023-02-15T14:48:04;6.73;;;5.70;;
11000;SDS011;5553;48.506;8.870;2023-02-15T14:50:43;9.17;;;6.33;;
11000;SDS011;5553;48.506;8.870;2023-02-15T14:59:00;7.00;;;5.23;;
11000;SDS011;5553;48.506;8.870;2023-02-15T15:01:57;11.23;;;5.20;;
11000;SDS011;5553;48.506;8.870;2023-02-15T15:04:31;7.30;;;5.40;;
11000;SDS011;5553;48.506;8.870;2023-02-15T15:07:03;9.33;;;6.10;;
11000;SDS011;5553;48.506;8.870;2023-02-15T15:09:40;10.73;;;8.40;;
11000;SDS011;5553;48.506;8.870;2023-02-15T15:15:05;10.47;;;7.87;;
11000;SDS011;5553;48.506;8.870;2023-02-15T15:29:02;9.17;;;6.90;;
11000;SDS011;5553;48.506;8.870;2023-02-15T15:31:37;9.03;;;6.33;;
11000;SDS011;5553;48.506;8.870;2023-02-15T15:37:13;11.13;;;6.67;;
11000;SDS011;5553;48.506;8.870;2023-02-15T15:40:01;9.97;;;6.80;;
11000;SDS011;5553;48.506;8.870;2023-02-15T15:42:50;6.07;;;5.20;;
11000;SDS011;5553;48.506;8.870;2023-02-15T15:45:41;6.40;;;5.27;;
11000;SDS011;5553;48.506;8.870;2023-02-15T15:48:31;7.13;;;4.90;;
11000;SDS011;5553;48.506;8.870;2023-02-15T15:51:09;11.43;;;7.60;;
11000;SDS011;5553;48.506;8.870;2023-02-15T15:53:43;12.23;;;9.23;;
11000;SDS011;5553;48.506;8.870;2023-02-15T15:56:16;13.20;;;6.37;;
11000;SDS011;5553;48.506;8.870;2023-02-15T15:58:48;8.53;;;6.50;;
11000;SDS011;5553;48.506;8.870;2023-02-15T16:01:24;8.23;;;6.30;;
11000;SDS011;5553;48.506;8.870;2023-02-15T16:03:55;10.70;;;7.00;;
11000;SDS011;5553;48.506;8.870;2023-02-15T16:06:31;7.47;;;6.60;;
11000;SDS011;5553;48.506;8.870;2023-02-15T16:09:16;10.30;;;6.67;;
11000;SDS011;5553;48.506;8.870;2023-02-15T16:11:46;10.60;;;6.47;;
11000;SDS011;5553;48.506;8.870;2023-02-15T16:14:17;10.53;;;6.57;;